Atikokan, Canada
Current Conditions -  °F | °C
As of 8:08 AM on Friday 19 Dec 2014 (Local Time) from KCDD Reporting Station
Overcast Overcast  
Wind Chill: 11°   Ceiling: 1000
Heat Index: 19°   Visibility: 10mi
Dew Point: 18°   Wind: 6mph
Humidity: 93%   Direction: 160°SSE
Pressure: 30.21"   Gusts: NA
Location:  48.76°N, 91.59°W
Report Text: KCDD 191408Z AUTO 16005KT 10SM OVC010 M07/M08 A3021 RMK AO2
Loading
Personal Weather Stations






























Interactive Weather Map New forecast layout! Learn more

10-Day Weather Forecast

Advertisements
Track Severe Weather on mobile